Главная страница
METAR-TAF:

METAR-TAF

Аэропорты :

Грозный, Россия

широта: 43-23-18N, долгота: 045-41-59E, высота над уровнем моря: 167 м

Текущие метеонаблюдения

Эта сводка был подготовлена 20 минут назад, в 22:00 UTC
Ветер 6 Узел от северо-северо-восточный
Температура 3°C
Влажность 100%
Давление 1018 hPa
Видимость 10 км и более
Сплошная облачность на высоте 600 фута

METAR: URMG 222200Z 03003MPS 9999 OVC006 03/03 Q1018 R26/290250 NOSIG RMK MT OBSC OBST OBSC QFE748/0998

Время: 01:20 (22:20 UTC)

Прогноз

Эта сводка был подготовлена 2 часа и 20 минут назад, в 20:00 UTC
Прогноз действительный с 22-го 21 UTC до 23-го 06 UTC
Ветер 10 Узел от восточно-северо-восточный
Видимость: 3100 м
Сплошная облачность на высоте 300 фута
дымка
временами
С 22-го 21 UTC до 23-го 05 UTC
Видимость: 0400 м
Морось, туман

TAF: URMG 222000Z 2221/2306 07005MPS 3100 BR OVC003 TEMPO 2221/2305 0400 DZ FG 0VC002

Метеонаблюдения и прогнозы для более 4000 аэропортов (сводки METAR и TAF).

Имеющиеся станции представлены на карте желтыми и красными точками.

Чтобы увидеть название станции, наведите на нее мышь.

Затем щелкните, чтобы увидеть метеонаблюдения и метеопрогнозы.

Управление картой: чтобы увеличить масштаб, щелкните зеленые кнопки с черным крестиком; чтобы уменьшить масштаб, щелкните зеленую кнопку с тире; для просмотра соседних карт щелкайте зеленые стрелки.


METAR-TAF: